sensor_id;sensor_type;location;lat;lon;timestamp;pressure;altitude;pressure_sealevel;temperature;humidity
62025;BME280;47978;49.118;12.146;2023-01-25T00:03:48;99113.25;;;1.26;89.05
62025;BME280;47978;49.118;12.146;2023-01-25T00:07:50;99109.88;;;1.24;89.18
62025;BME280;47978;49.118;12.146;2023-01-25T00:11:51;99119.91;;;1.17;89.24
62025;BME280;47978;49.118;12.146;2023-01-25T00:15:59;99117.63;;;1.20;88.96
62025;BME280;47978;49.118;12.146;2023-01-25T00:20:00;99117.41;;;1.22;88.28
62025;BME280;47978;49.118;12.146;2023-01-25T00:24:02;99125.41;;;1.30;88.07
62025;BME280;47978;49.118;12.146;2023-01-25T00:28:03;99118.28;;;1.29;88.13
62025;BME280;47978;49.118;12.146;2023-01-25T00:36:33;99104.88;;;1.34;87.40
62025;BME280;47978;49.118;12.146;2023-01-25T00:40:40;99098.38;;;1.28;87.65
62025;BME280;47978;49.118;12.146;2023-01-25T00:44:41;99095.25;;;1.31;87.63
62025;BME280;47978;49.118;12.146;2023-01-25T00:48:42;99094.59;;;1.29;87.75
62025;BME280;47978;49.118;12.146;2023-01-25T00:52:45;99095.25;;;1.31;87.09
62025;BME280;47978;49.118;12.146;2023-01-25T00:56:47;99093.75;;;1.29;87.69
62025;BME280;47978;49.118;12.146;2023-01-25T01:00:48;99091.59;;;1.11;87.63
62025;BME280;47978;49.118;12.146;2023-01-25T01:04:49;99096.03;;;1.12;88.23
62025;BME280;47978;49.118;12.146;2023-01-25T01:08:52;99091.00;;;1.16;87.71
62025;BME280;47978;49.118;12.146;2023-01-25T01:12:54;99092.25;;;1.13;87.62
62025;BME280;47978;49.118;12.146;2023-01-25T01:16:55;99106.09;;;1.18;87.52
62025;BME280;47978;49.118;12.146;2023-01-25T01:20:58;99105.44;;;1.09;87.72
62025;BME280;47978;49.118;12.146;2023-01-25T01:25:01;99105.03;;;1.06;88.48
62025;BME280;47978;49.118;12.146;2023-01-25T01:29:02;99102.72;;;1.09;87.95
62025;BME280;47978;49.118;12.146;2023-01-25T01:33:03;99104.78;;;1.01;88.17
62025;BME280;47978;49.118;12.146;2023-01-25T01:37:05;99111.53;;;1.11;87.37
62025;BME280;47978;49.118;12.146;2023-01-25T01:41:08;99113.38;;;0.98;88.59
62025;BME280;47978;49.118;12.146;2023-01-25T01:49:26;99100.19;;;1.01;87.79
62025;BME280;47978;49.118;12.146;2023-01-25T01:53:29;99103.97;;;1.00;88.35
62025;BME280;47978;49.118;12.146;2023-01-25T01:57:35;99103.44;;;0.77;88.86
62025;BME280;47978;49.118;12.146;2023-01-25T02:01:38;99103.25;;;0.85;89.03
62025;BME280;47978;49.118;12.146;2023-01-25T02:05:43;99105.78;;;0.86;88.89
62025;BME280;47978;49.118;12.146;2023-01-25T02:09:47;99097.22;;;0.96;88.98
62025;BME280;47978;49.118;12.146;2023-01-25T02:13:50;99098.28;;;0.88;88.68
62025;BME280;47978;49.118;12.146;2023-01-25T02:17:53;99097.63;;;0.93;88.86
62025;BME280;47978;49.118;12.146;2023-01-25T02:21:54;99101.16;;;0.80;89.67
62025;BME280;47978;49.118;12.146;2023-01-25T02:25:59;99103.66;;;0.82;89.71
62025;BME280;47978;49.118;12.146;2023-01-25T02:30:01;99095.06;;;0.78;90.23
62025;BME280;47978;49.118;12.146;2023-01-25T02:34:03;99097.88;;;0.98;88.88
62025;BME280;47978;49.118;12.146;2023-01-25T02:38:04;99094.97;;;1.06;87.92
62025;BME280;47978;49.118;12.146;2023-01-25T02:42:08;99097.63;;;0.86;89.36
62025;BME280;47978;49.118;12.146;2023-01-25T02:46:11;99096.38;;;0.89;88.89
62025;BME280;47978;49.118;12.146;2023-01-25T02:50:14;99087.75;;;0.79;88.78
62025;BME280;47978;49.118;12.146;2023-01-25T02:54:16;99094.19;;;0.71;89.16
62025;BME280;47978;49.118;12.146;2023-01-25T02:58:20;99089.41;;;0.73;88.64
62025;BME280;47978;49.118;12.146;2023-01-25T03:02:21;99089.63;;;0.78;88.58
62025;BME280;47978;49.118;12.146;2023-01-25T03:06:22;99095.06;;;0.72;89.04
62025;BME280;47978;49.118;12.146;2023-01-25T03:10:24;99089.44;;;0.80;89.08
62025;BME280;47978;49.118;12.146;2023-01-25T03:14:26;99078.09;;;0.76;88.70
62025;BME280;47978;49.118;12.146;2023-01-25T03:18:28;99069.94;;;0.76;88.88
62025;BME280;47978;49.118;12.146;2023-01-25T03:22:29;99073.28;;;0.72;88.67
62025;BME280;47978;49.118;12.146;2023-01-25T03:26:31;99062.00;;;0.81;88.39
62025;BME280;47978;49.118;12.146;2023-01-25T03:30:33;99062.56;;;0.63;89.26
62025;BME280;47978;49.118;12.146;2023-01-25T03:34:35;99059.44;;;0.66;89.04
62025;BME280;47978;49.118;12.146;2023-01-25T03:38:36;99061.56;;;0.78;88.49
62025;BME280;47978;49.118;12.146;2023-01-25T03:42:38;99057.78;;;0.79;88.25
62025;BME280;47978;49.118;12.146;2023-01-25T03:46:40;99054.25;;;0.78;88.46
62025;BME280;47978;49.118;12.146;2023-01-25T03:50:42;99049.19;;;0.75;88.20
62025;BME280;47978;49.118;12.146;2023-01-25T03:54:48;99053.41;;;0.78;88.31
62025;BME280;47978;49.118;12.146;2023-01-25T03:58:49;99046.88;;;0.65;88.89
62025;BME280;47978;49.118;12.146;2023-01-25T04:02:52;99045.41;;;0.70;88.26
62025;BME280;47978;49.118;12.146;2023-01-25T04:06:53;99049.84;;;0.77;88.65
62025;BME280;47978;49.118;12.146;2023-01-25T04:10:55;99036.59;;;0.67;88.97
62025;BME280;47978;49.118;12.146;2023-01-25T04:14:57;99033.06;;;0.74;88.69
62025;BME280;47978;49.118;12.146;2023-01-25T04:18:59;99028.44;;;0.67;89.02
62025;BME280;47978;49.118;12.146;2023-01-25T04:23:01;99022.16;;;0.60;88.77
62025;BME280;47978;49.118;12.146;2023-01-25T04:27:02;99016.28;;;0.63;88.42
62025;BME280;47978;49.118;12.146;2023-01-25T04:31:04;99004.59;;;0.70;88.42
62025;BME280;47978;49.118;12.146;2023-01-25T04:35:07;99005.41;;;0.63;88.74
62025;BME280;47978;49.118;12.146;2023-01-25T04:39:09;98999.38;;;0.75;87.86
62025;BME280;47978;49.118;12.146;2023-01-25T04:43:11;98994.53;;;0.70;88.29
62025;BME280;47978;49.118;12.146;2023-01-25T04:47:13;98984.06;;;0.74;88.00
62025;BME280;47978;49.118;12.146;2023-01-25T04:51:15;98988.44;;;0.68;88.46
62025;BME280;47978;49.118;12.146;2023-01-25T04:55:17;98994.09;;;0.60;88.88
62025;BME280;47978;49.118;12.146;2023-01-25T04:59:18;98993.88;;;0.61;88.75
62025;BME280;47978;49.118;12.146;2023-01-25T05:03:20;98983.22;;;0.60;88.90
62025;BME280;47978;49.118;12.146;2023-01-25T05:07:23;98984.47;;;0.71;88.55
62025;BME280;47978;49.118;12.146;2023-01-25T05:11:24;98975.88;;;0.67;88.76
62025;BME280;47978;49.118;12.146;2023-01-25T05:15:25;98979.03;;;0.71;88.84
62025;BME280;47978;49.118;12.146;2023-01-25T05:19:27;98973.41;;;0.79;88.42
62025;BME280;47978;49.118;12.146;2023-01-25T05:23:29;98980.72;;;0.72;88.71
62025;BME280;47978;49.118;12.146;2023-01-25T05:27:31;98976.94;;;0.79;88.61
62025;BME280;47978;49.118;12.146;2023-01-25T05:31:32;98967.13;;;0.85;88.43
62025;BME280;47978;49.118;12.146;2023-01-25T05:35:33;98955.63;;;0.83;88.61
62025;BME280;47978;49.118;12.146;2023-01-25T05:39:36;98975.94;;;0.80;88.61
62025;BME280;47978;49.118;12.146;2023-01-25T05:43:38;98963.16;;;0.74;88.67
62025;BME280;47978;49.118;12.146;2023-01-25T05:47:39;98967.53;;;0.75;88.53
62025;BME280;47978;49.118;12.146;2023-01-25T05:51:40;98968.38;;;0.76;88.67
62025;BME280;47978;49.118;12.146;2023-01-25T05:55:43;98956.84;;;0.74;88.95
62025;BME280;47978;49.118;12.146;2023-01-25T05:59:44;98958.31;;;0.76;89.36
62025;BME280;47978;49.118;12.146;2023-01-25T06:03:46;98959.59;;;0.80;89.22
62025;BME280;47978;49.118;12.146;2023-01-25T06:07:47;98968.38;;;0.76;88.92
62025;BME280;47978;49.118;12.146;2023-01-25T06:11:50;98954.75;;;0.82;88.75
62025;BME280;47978;49.118;12.146;2023-01-25T06:15:51;98958.75;;;0.80;88.88
62025;BME280;47978;49.118;12.146;2023-01-25T06:19:53;98958.94;;;0.85;89.00
62025;BME280;47978;49.118;12.146;2023-01-25T06:23:55;98956.22;;;0.85;89.00
62025;BME280;47978;49.118;12.146;2023-01-25T06:27:57;98960.66;;;0.86;89.15
62025;BME280;47978;49.118;12.146;2023-01-25T06:31:59;98965.03;;;0.94;88.54
62025;BME280;47978;49.118;12.146;2023-01-25T06:36:01;98966.50;;;0.96;88.02
62025;BME280;47978;49.118;12.146;2023-01-25T06:40:02;98966.72;;;1.01;88.41
62025;BME280;47978;49.118;12.146;2023-01-25T06:44:05;98972.59;;;0.92;88.13
62025;BME280;47978;49.118;12.146;2023-01-25T06:48:06;98967.13;;;0.85;88.10
62025;BME280;47978;49.118;12.146;2023-01-25T06:52:08;98966.50;;;0.89;88.36
62025;BME280;47978;49.118;12.146;2023-01-25T06:56:10;98958.34;;;0.96;88.25
62025;BME280;47978;49.118;12.146;2023-01-25T07:00:14;98957.28;;;0.90;88.15
62025;BME280;47978;49.118;12.146;2023-01-25T07:04:15;98962.13;;;0.88;88.31
62025;BME280;47978;49.118;12.146;2023-01-25T07:08:17;98959.41;;;0.95;87.30
62025;BME280;47978;49.118;12.146;2023-01-25T07:12:18;98955.38;;;0.91;87.76
62025;BME280;47978;49.118;12.146;2023-01-25T07:16:21;98955.63;;;0.96;87.23
62025;BME280;47978;49.118;12.146;2023-01-25T07:20:22;98961.09;;;1.03;87.59
62025;BME280;47978;49.118;12.146;2023-01-25T07:24:24;98965.25;;;0.92;87.82
62025;BME280;47978;49.118;12.146;2023-01-25T07:28:25;98955.84;;;0.95;87.39
62025;BME280;47978;49.118;12.146;2023-01-25T07:32:28;98953.72;;;0.97;87.40
62025;BME280;47978;49.118;12.146;2023-01-25T07:36:30;98949.97;;;1.04;86.90
62025;BME280;47978;49.118;12.146;2023-01-25T07:40:31;98951.44;;;1.00;86.52
62025;BME280;47978;49.118;12.146;2023-01-25T07:44:32;98944.31;;;1.06;86.42
62025;BME280;47978;49.118;12.146;2023-01-25T07:48:35;98945.97;;;1.13;85.88
62025;BME280;47978;49.118;12.146;2023-01-25T07:52:37;98949.56;;;1.14;85.65
62025;BME280;47978;49.118;12.146;2023-01-25T07:56:39;98946.59;;;1.02;86.46
62025;BME280;47978;49.118;12.146;2023-01-25T08:00:40;98958.13;;;1.04;86.08
62025;BME280;47978;49.118;12.146;2023-01-25T08:04:43;98951.00;;;1.10;86.19
62025;BME280;47978;49.118;12.146;2023-01-25T08:08:45;98946.22;;;1.05;86.41
62025;BME280;47978;49.118;12.146;2023-01-25T08:12:47;98955.19;;;1.19;84.39
62025;BME280;47978;49.118;12.146;2023-01-25T08:16:48;98948.28;;;1.17;84.83
62025;BME280;47978;49.118;12.146;2023-01-25T08:20:51;98944.13;;;1.14;85.98
62025;BME280;47978;49.118;12.146;2023-01-25T08:24:52;98947.47;;;1.23;84.61
62025;BME280;47978;49.118;12.146;2023-01-25T08:28:53;98951.03;;;1.03;85.30
62025;BME280;47978;49.118;12.146;2023-01-25T08:32:55;98954.78;;;1.22;85.43
62025;BME280;47978;49.118;12.146;2023-01-25T08:36:58;98949.34;;;1.16;84.75
62025;BME280;47978;49.118;12.146;2023-01-25T08:41:03;98945.16;;;1.13;85.20
62025;BME280;47978;49.118;12.146;2023-01-25T08:45:05;98945.97;;;1.13;84.97
62025;BME280;47978;49.118;12.146;2023-01-25T08:49:08;98951.00;;;1.37;83.68
62025;BME280;47978;49.118;12.146;2023-01-25T08:53:10;98948.50;;;1.35;84.38
62025;BME280;47978;49.118;12.146;2023-01-25T08:57:12;98948.94;;;1.45;82.62
62025;BME280;47978;49.118;12.146;2023-01-25T09:01:14;98938.66;;;1.27;84.46
62025;BME280;47978;49.118;12.146;2023-01-25T09:05:16;98929.63;;;1.40;84.11
62025;BME280;47978;49.118;12.146;2023-01-25T09:09:19;98934.00;;;1.61;81.89
62025;BME280;47978;49.118;12.146;2023-01-25T09:13:20;98923.09;;;1.48;82.77
62025;BME280;47978;49.118;12.146;2023-01-25T09:17:21;98927.13;;;1.45;83.36
62025;BME280;47978;49.118;12.146;2023-01-25T09:21:23;98920.41;;;1.34;83.00
62025;BME280;47978;49.118;12.146;2023-01-25T09:25:26;98923.38;;;1.20;84.22
62025;BME280;47978;49.118;12.146;2023-01-25T09:29:27;98921.25;;;1.22;83.86
62025;BME280;47978;49.118;12.146;2023-01-25T09:33:30;98918.09;;;1.38;83.05
62025;BME280;47978;49.118;12.146;2023-01-25T09:37:31;98920.81;;;1.38;82.79
62025;BME280;47978;49.118;12.146;2023-01-25T09:41:44;98912.84;;;1.50;82.07
62025;BME280;47978;49.118;12.146;2023-01-25T09:45:50;98916.22;;;1.45;83.33
62025;BME280;47978;49.118;12.146;2023-01-25T09:49:57;98915.75;;;1.62;82.37
62025;BME280;47978;49.118;12.146;2023-01-25T09:54:00;98911.56;;;1.66;81.10
62025;BME280;47978;49.118;12.146;2023-01-25T09:58:04;98908.22;;;1.50;81.87
62025;BME280;47978;49.118;12.146;2023-01-25T10:02:15;98909.06;;;1.57;81.77
62025;BME280;47978;49.118;12.146;2023-01-25T10:06:19;98902.56;;;1.52;81.62
62025;BME280;47978;49.118;12.146;2023-01-25T10:10:23;98894.59;;;1.50;81.79
62025;BME280;47978;49.118;12.146;2023-01-25T10:14:28;98886.44;;;1.44;82.19
62025;BME280;47978;49.118;12.146;2023-01-25T10:18:31;98883.53;;;1.32;82.18
62025;BME280;47978;49.118;12.146;2023-01-25T10:22:34;98878.88;;;1.39;82.43
62025;BME280;47978;49.118;12.146;2023-01-25T10:26:37;98869.22;;;1.50;82.08
62025;BME280;47978;49.118;12.146;2023-01-25T10:30:42;98873.25;;;1.41;82.75
62025;BME280;47978;49.118;12.146;2023-01-25T10:34:48;98871.75;;;1.51;82.24
62025;BME280;47978;49.118;12.146;2023-01-25T10:38:56;98854.50;;;1.64;82.19
62025;BME280;47978;49.118;12.146;2023-01-25T10:42:59;98844.03;;;1.61;82.73
62025;BME280;47978;49.118;12.146;2023-01-25T10:47:05;98843.00;;;1.55;82.02
62025;BME280;47978;49.118;12.146;2023-01-25T10:51:26;98833.59;;;1.51;82.67
62025;BME280;47978;49.118;12.146;2023-01-25T10:55:28;98829.53;;;1.67;82.88
62025;BME280;47978;49.118;12.146;2023-01-25T10:59:30;98826.72;;;1.87;81.39
62025;BME280;47978;49.118;12.146;2023-01-25T11:03:37;98810.31;;;2.00;81.21
62025;BME280;47978;49.118;12.146;2023-01-25T11:07:38;98807.88;;;1.86;81.97
62025;BME280;47978;49.118;12.146;2023-01-25T11:11:39;98794.81;;;1.88;81.41
62025;BME280;47978;49.118;12.146;2023-01-25T11:15:42;98793.88;;;2.07;80.35
62025;BME280;47978;49.118;12.146;2023-01-25T11:19:45;98777.72;;;1.74;81.12
62025;BME280;47978;49.118;12.146;2023-01-25T11:23:56;98788.00;;;1.72;82.05
62025;BME280;47978;49.118;12.146;2023-01-25T11:28:13;98787.72;;;1.87;80.19
62025;BME280;47978;49.118;12.146;2023-01-25T11:32:17;98781.56;;;1.98;79.18
62025;BME280;47978;49.118;12.146;2023-01-25T11:36:21;98775.44;;;1.71;81.52
62025;BME280;47978;49.118;12.146;2023-01-25T11:40:28;98760.94;;;1.77;81.69
62025;BME280;47978;49.118;12.146;2023-01-25T11:44:46;98765.94;;;1.80;82.25
62025;BME280;47978;49.118;12.146;2023-01-25T11:48:53;98754.16;;;1.86;79.69
62025;BME280;47978;49.118;12.146;2023-01-25T11:53:07;98755.63;;;1.82;80.82
62025;BME280;47978;49.118;12.146;2023-01-25T11:57:22;98743.38;;;1.66;81.81
62025;BME280;47978;49.118;12.146;2023-01-25T12:01:31;98739.28;;;1.82;81.21
62025;BME280;47978;49.118;12.146;2023-01-25T12:05:39;98722.00;;;1.63;81.34
62025;BME280;47978;49.118;12.146;2023-01-25T12:09:48;98719.13;;;1.51;82.34
62025;BME280;47978;49.118;12.146;2023-01-25T12:13:55;98706.28;;;1.58;81.04
62025;BME280;47978;49.118;12.146;2023-01-25T12:18:13;98705.63;;;1.63;80.15
62025;BME280;47978;49.118;12.146;2023-01-25T12:22:24;98691.75;;;1.71;80.73
62025;BME280;47978;49.118;12.146;2023-01-25T12:26:33;98684.25;;;1.60;80.87
62025;BME280;47978;49.118;12.146;2023-01-25T12:30:39;98676.53;;;1.50;81.36
62025;BME280;47978;49.118;12.146;2023-01-25T12:34:43;98671.13;;;1.44;81.35
62025;BME280;47978;49.118;12.146;2023-01-25T12:38:49;98662.00;;;1.63;79.70
62025;BME280;47978;49.118;12.146;2023-01-25T12:42:54;98657.91;;;1.47;81.36
62025;BME280;47978;49.118;12.146;2023-01-25T12:46:59;98653.09;;;1.49;81.32
62025;BME280;47978;49.118;12.146;2023-01-25T12:51:05;98644.72;;;1.44;81.24
62025;BME280;47978;49.118;12.146;2023-01-25T12:55:10;98631.72;;;1.46;82.29
62025;BME280;47978;49.118;12.146;2023-01-25T12:59:15;98629.31;;;1.63;81.84
62025;BME280;47978;49.118;12.146;2023-01-25T13:03:22;98620.31;;;1.56;81.62
62025;BME280;47978;49.118;12.146;2023-01-25T13:07:27;98617.66;;;1.49;81.40
62025;BME280;47978;49.118;12.146;2023-01-25T13:11:31;98611.81;;;1.46;81.62
62025;BME280;47978;49.118;12.146;2023-01-25T13:15:35;98604.72;;;1.70;80.52
62025;BME280;47978;49.118;12.146;2023-01-25T13:19:38;98599.16;;;1.83;79.50
62025;BME280;47978;49.118;12.146;2023-01-25T13:23:40;98600.66;;;1.79;79.90
62025;BME280;47978;49.118;12.146;2023-01-25T13:27:42;98598.38;;;1.44;80.74
62025;BME280;47978;49.118;12.146;2023-01-25T13:31:45;98594.25;;;1.35;81.47
62025;BME280;47978;49.118;12.146;2023-01-25T13:35:53;98588.88;;;1.28;82.13
62025;BME280;47978;49.118;12.146;2023-01-25T13:39:54;98578.81;;;1.22;82.35
62025;BME280;47978;49.118;12.146;2023-01-25T13:44:10;98572.53;;;1.28;82.35
62025;BME280;47978;49.118;12.146;2023-01-25T13:48:15;98567.69;;;1.55;81.29
62025;BME280;47978;49.118;12.146;2023-01-25T13:52:19;98564.78;;;1.25;82.40
62025;BME280;47978;49.118;12.146;2023-01-25T13:56:25;98549.66;;;1.29;81.76
62025;BME280;47978;49.118;12.146;2023-01-25T14:00:27;98545.78;;;1.12;82.57
62025;BME280;47978;49.118;12.146;2023-01-25T14:04:30;98551.25;;;1.12;82.99
62025;BME280;47978;49.118;12.146;2023-01-25T14:08:31;98549.09;;;1.21;82.75
62025;BME280;47978;49.118;12.146;2023-01-25T14:12:35;98550.19;;;1.13;83.31
62025;BME280;47978;49.118;12.146;2023-01-25T14:16:37;98549.34;;;1.12;83.09
62025;BME280;47978;49.118;12.146;2023-01-25T14:20:40;98558.84;;;1.03;83.49
62025;BME280;47978;49.118;12.146;2023-01-25T14:24:41;98555.88;;;1.11;83.46
62025;BME280;47978;49.118;12.146;2023-01-25T14:28:43;98552.91;;;1.13;82.28
62025;BME280;47978;49.118;12.146;2023-01-25T14:33:00;98538.91;;;1.09;82.19
62025;BME280;47978;49.118;12.146;2023-01-25T14:37:11;98536.94;;;1.17;82.54
62025;BME280;47978;49.118;12.146;2023-01-25T14:41:15;98537.06;;;1.03;82.81
62025;BME280;47978;49.118;12.146;2023-01-25T14:45:18;98531.88;;;0.95;82.72
62025;BME280;47978;49.118;12.146;2023-01-25T14:49:22;98516.41;;;0.82;84.03
62025;BME280;47978;49.118;12.146;2023-01-25T14:53:25;98519.97;;;0.89;83.76
62025;BME280;47978;49.118;12.146;2023-01-25T14:57:30;98516.41;;;0.89;82.34
62025;BME280;47978;49.118;12.146;2023-01-25T15:01:35;98516.22;;;0.84;82.91
62025;BME280;47978;49.118;12.146;2023-01-25T15:05:37;98512.09;;;0.68;84.45
62025;BME280;47978;49.118;12.146;2023-01-25T15:09:40;98506.59;;;0.81;84.48
62025;BME280;47978;49.118;12.146;2023-01-25T15:13:41;98502.66;;;0.77;84.57
62025;BME280;47978;49.118;12.146;2023-01-25T15:17:44;98501.00;;;0.70;84.79
62025;BME280;47978;49.118;12.146;2023-01-25T15:21:46;98500.19;;;0.69;84.81
62025;BME280;47978;49.118;12.146;2023-01-25T15:25:50;98498.66;;;0.80;84.94
62025;BME280;47978;49.118;12.146;2023-01-25T15:29:52;98500.31;;;0.81;83.88
62025;BME280;47978;49.118;12.146;2023-01-25T15:33:53;98489.63;;;0.79;84.77
62025;BME280;47978;49.118;12.146;2023-01-25T15:37:55;98478.63;;;0.67;85.03
62025;BME280;47978;49.118;12.146;2023-01-25T15:41:58;98483.84;;;0.69;85.31
62025;BME280;47978;49.118;12.146;2023-01-25T15:45:59;98474.19;;;0.28;86.71
62025;BME280;47978;49.118;12.146;2023-01-25T15:50:01;98475.41;;;0.39;86.25
62025;BME280;47978;49.118;12.146;2023-01-25T15:54:03;98478.09;;;0.45;86.14
62025;BME280;47978;49.118;12.146;2023-01-25T15:58:05;98478.31;;;0.44;86.25
62025;BME280;47978;49.118;12.146;2023-01-25T16:02:09;98475.22;;;0.40;86.50
62025;BME280;47978;49.118;12.146;2023-01-25T16:10:30;98471.63;;;0.47;86.02
62025;BME280;47978;49.118;12.146;2023-01-25T16:14:33;98459.91;;;0.46;86.19
62025;BME280;47978;49.118;12.146;2023-01-25T16:18:35;98458.06;;;0.40;86.56
62025;BME280;47978;49.118;12.146;2023-01-25T16:22:36;98458.66;;;0.42;86.86
62025;BME280;47978;49.118;12.146;2023-01-25T16:26:38;98438.38;;;0.38;87.08
62025;BME280;47978;49.118;12.146;2023-01-25T16:30:42;98440.25;;;0.44;86.55
62025;BME280;47978;49.118;12.146;2023-01-25T16:34:43;98433.13;;;0.43;86.42
62025;BME280;47978;49.118;12.146;2023-01-25T16:38:45;98422.94;;;0.32;87.26
62025;BME280;47978;49.118;12.146;2023-01-25T16:42:46;98428.72;;;0.49;85.87
62025;BME280;47978;49.118;12.146;2023-01-25T16:46:49;98430.75;;;0.53;85.81
62025;BME280;47978;49.118;12.146;2023-01-25T16:50:50;98430.69;;;0.66;85.81
62025;BME280;47978;49.118;12.146;2023-01-25T16:54:52;98415.31;;;0.47;85.82
62025;BME280;47978;49.118;12.146;2023-01-25T16:58:54;98416.59;;;0.44;86.34
62025;BME280;47978;49.118;12.146;2023-01-25T17:02:57;98412.63;;;0.40;87.04
62025;BME280;47978;49.118;12.146;2023-01-25T17:07:00;98402.84;;;0.64;86.01
62025;BME280;47978;49.118;12.146;2023-01-25T17:11:02;98400.81;;;0.53;86.32
62025;BME280;47978;49.118;12.146;2023-01-25T17:15:03;98406.28;;;0.53;85.84
62025;BME280;47978;49.118;12.146;2023-01-25T17:19:08;98402.97;;;0.44;86.57
62025;BME280;47978;49.118;12.146;2023-01-25T17:23:10;98399.50;;;0.31;86.94
62025;BME280;47978;49.118;12.146;2023-01-25T17:27:12;98404.28;;;0.35;86.84
62025;BME280;47978;49.118;12.146;2023-01-25T17:31:13;98398.66;;;0.30;86.49
62025;BME280;47978;49.118;12.146;2023-01-25T17:35:16;98403.28;;;0.30;87.64
62025;BME280;47978;49.118;12.146;2023-01-25T17:39:18;98397.59;;;0.31;87.36
62025;BME280;47978;49.118;12.146;2023-01-25T17:43:20;98391.03;;;0.45;86.95
62025;BME280;47978;49.118;12.146;2023-01-25T17:47:21;98386.13;;;0.29;87.69
62025;BME280;47978;49.118;12.146;2023-01-25T17:51:24;98382.41;;;0.17;87.16
62025;BME280;47978;49.118;12.146;2023-01-25T17:55:25;98379.53;;;0.12;87.29
62025;BME280;47978;49.118;12.146;2023-01-25T17:59:27;98371.31;;;0.18;87.00
62025;BME280;47978;49.118;12.146;2023-01-25T18:03:28;98379.53;;;0.05;87.51
62025;BME280;47978;49.118;12.146;2023-01-25T18:07:31;98383.09;;;0.06;87.57
62025;BME280;47978;49.118;12.146;2023-01-25T18:11:33;98375.94;;;0.18;86.49
62025;BME280;47978;49.118;12.146;2023-01-25T18:15:35;98375.53;;;0.14;87.08
62025;BME280;47978;49.118;12.146;2023-01-25T18:19:36;98368.66;;;0.12;87.50
62025;BME280;47978;49.118;12.146;2023-01-25T18:23:40;98365.06;;;0.11;87.40
62025;BME280;47978;49.118;12.146;2023-01-25T18:27:41;98362.25;;;0.31;86.71
62025;BME280;47978;49.118;12.146;2023-01-25T18:31:43;98349.66;;;0.37;85.96
62025;BME280;47978;49.118;12.146;2023-01-25T18:35:45;98347.75;;;0.44;86.24
62025;BME280;47978;49.118;12.146;2023-01-25T18:39:49;98338.63;;;0.25;86.63
62025;BME280;47978;49.118;12.146;2023-01-25T18:43:50;98336.22;;;0.10;87.71
62025;BME280;47978;49.118;12.146;2023-01-25T18:47:51;98336.22;;;0.10;87.74
62025;BME280;47978;49.118;12.146;2023-01-25T18:51:53;98332.94;;;0.02;87.95
62025;BME280;47978;49.118;12.146;2023-01-25T18:56:13;98325.66;;;-0.05;88.78
62025;BME280;47978;49.118;12.146;2023-01-25T19:00:15;98317.81;;;0.12;88.19
62025;BME280;47978;49.118;12.146;2023-01-25T19:04:17;98311.19;;;0.33;87.26
62025;BME280;47978;49.118;12.146;2023-01-25T19:08:18;98297.56;;;0.40;86.65
62025;BME280;47978;49.118;12.146;2023-01-25T19:12:21;98297.31;;;0.41;86.68
62025;BME280;47978;49.118;12.146;2023-01-25T19:16:22;98299.97;;;0.23;86.49
62025;BME280;47978;49.118;12.146;2023-01-25T19:20:24;98299.97;;;0.23;87.22
62025;BME280;47978;49.118;12.146;2023-01-25T19:24:25;98295.56;;;0.22;87.18
62025;BME280;47978;49.118;12.146;2023-01-25T19:28:28;98296.81;;;-0.06;88.19
62025;BME280;47978;49.118;12.146;2023-01-25T19:32:30;98293.84;;;-0.04;87.20
62025;BME280;47978;49.118;12.146;2023-01-25T19:36:32;98294.16;;;0.13;87.44
62025;BME280;47978;49.118;12.146;2023-01-25T19:40:34;98290.06;;;0.04;87.11
62025;BME280;47978;49.118;12.146;2023-01-25T19:44:37;98288.59;;;0.01;87.38
62025;BME280;47978;49.118;12.146;2023-01-25T19:48:38;98292.78;;;-0.03;87.85
62025;BME280;47978;49.118;12.146;2023-01-25T19:52:40;98279.78;;;0.06;87.67
62025;BME280;47978;49.118;12.146;2023-01-25T19:56:42;98276.94;;;-0.06;88.38
62025;BME280;47978;49.118;12.146;2023-01-25T20:00:45;98274.44;;;-0.08;88.57
62025;BME280;47978;49.118;12.146;2023-01-25T20:04:46;98268.44;;;0.15;87.52
62025;BME280;47978;49.118;12.146;2023-01-25T20:08:48;98257.81;;;0.07;88.03
62025;BME280;47978;49.118;12.146;2023-01-25T20:12:49;98254.09;;;0.02;88.21
62025;BME280;47978;49.118;12.146;2023-01-25T20:16:52;98251.69;;;-0.13;88.79
62025;BME280;47978;49.118;12.146;2023-01-25T20:20:54;98249.84;;;-0.19;88.66
62025;BME280;47978;49.118;12.146;2023-01-25T20:24:55;98246.31;;;-0.27;90.01
62025;BME280;47978;49.118;12.146;2023-01-25T20:28:57;98245.09;;;0.01;88.65
62025;BME280;47978;49.118;12.146;2023-01-25T20:33:00;98237.72;;;0.08;88.66
62025;BME280;47978;49.118;12.146;2023-01-25T20:37:01;98242.56;;;0.06;88.50
62025;BME280;47978;49.118;12.146;2023-01-25T20:41:04;98229.25;;;-0.02;89.08
62025;BME280;47978;49.118;12.146;2023-01-25T20:45:06;98217.91;;;0.01;89.01
62025;BME280;47978;49.118;12.146;2023-01-25T20:49:09;98216.41;;;0.05;89.53
62025;BME280;47978;49.118;12.146;2023-01-25T20:53:11;98213.16;;;0.21;88.52
62025;BME280;47978;49.118;12.146;2023-01-25T20:57:12;98194.34;;;0.20;88.37
62025;BME280;47978;49.118;12.146;2023-01-25T21:01:14;98205.28;;;0.13;88.46
62025;BME280;47978;49.118;12.146;2023-01-25T21:05:17;98194.53;;;0.00;89.40
62025;BME280;47978;49.118;12.146;2023-01-25T21:09:19;98197.88;;;-0.05;89.11
62025;BME280;47978;49.118;12.146;2023-01-25T21:13:20;98186.19;;;-0.05;89.51
62025;BME280;47978;49.118;12.146;2023-01-25T21:17:22;98195.50;;;-0.19;90.75
62025;BME280;47978;49.118;12.146;2023-01-25T21:21:25;98180.56;;;-0.10;89.94
62025;BME280;47978;49.118;12.146;2023-01-25T21:25:27;98181.50;;;0.02;88.42
62025;BME280;47978;49.118;12.146;2023-01-25T21:29:28;98173.63;;;-0.06;89.70
62025;BME280;47978;49.118;12.146;2023-01-25T21:33:30;98176.59;;;-0.08;90.26
62025;BME280;47978;49.118;12.146;2023-01-25T21:37:32;98171.53;;;-0.04;89.22
62025;BME280;47978;49.118;12.146;2023-01-25T21:41:34;98168.69;;;-0.16;90.60